sensor_id;sensor_type;location;lat;lon;timestamp;P1;durP1;ratioP1;P2;durP2;ratioP2
48205;SDS011;33995;48.202;16.260;2023-10-13T00:01:38;10.53;;;7.17;;
48205;SDS011;33995;48.202;16.260;2023-10-13T00:04:06;9.10;;;7.60;;
48205;SDS011;33995;48.202;16.260;2023-10-13T00:06:34;9.93;;;8.00;;
48205;SDS011;33995;48.202;16.260;2023-10-13T00:09:03;9.57;;;8.20;;
48205;SDS011;33995;48.202;16.260;2023-10-13T00:11:31;8.73;;;7.30;;
48205;SDS011;33995;48.202;16.260;2023-10-13T00:13:58;9.93;;;6.93;;
48205;SDS011;33995;48.202;16.260;2023-10-13T00:16:29;11.17;;;7.00;;
48205;SDS011;33995;48.202;16.260;2023-10-13T00:18:57;9.50;;;7.03;;
48205;SDS011;33995;48.202;16.260;2023-10-13T00:21:24;8.30;;;7.13;;
48205;SDS011;33995;48.202;16.260;2023-10-13T00:23:58;9.00;;;7.13;;
48205;SDS011;33995;48.202;16.260;2023-10-13T00:26:28;9.00;;;7.07;;
48205;SDS011;33995;48.202;16.260;2023-10-13T00:28:58;9.17;;;6.67;;
48205;SDS011;33995;48.202;16.260;2023-10-13T00:31:55;9.03;;;6.93;;
48205;SDS011;33995;48.202;16.260;2023-10-13T00:34:22;10.90;;;6.83;;
48205;SDS011;33995;48.202;16.260;2023-10-13T00:36:55;8.40;;;7.10;;
48205;SDS011;33995;48.202;16.260;2023-10-13T00:39:41;9.07;;;7.20;;
48205;SDS011;33995;48.202;16.260;2023-10-13T00:42:12;9.87;;;7.37;;
48205;SDS011;33995;48.202;16.260;2023-10-13T00:44:47;12.77;;;7.70;;
48205;SDS011;33995;48.202;16.260;2023-10-13T00:47:22;9.73;;;6.83;;
48205;SDS011;33995;48.202;16.260;2023-10-13T00:50:10;7.10;;;6.30;;
48205;SDS011;33995;48.202;16.260;2023-10-13T00:52:41;9.80;;;6.93;;
48205;SDS011;33995;48.202;16.260;2023-10-13T00:55:13;8.00;;;6.73;;
48205;SDS011;33995;48.202;16.260;2023-10-13T00:57:41;8.87;;;6.77;;
48205;SDS011;33995;48.202;16.260;2023-10-13T01:00:08;9.57;;;7.10;;
48205;SDS011;33995;48.202;16.260;2023-10-13T01:02:45;9.40;;;7.50;;
48205;SDS011;33995;48.202;16.260;2023-10-13T01:05:22;9.07;;;7.37;;
48205;SDS011;33995;48.202;16.260;2023-10-13T01:07:50;8.97;;;7.50;;
48205;SDS011;33995;48.202;16.260;2023-10-13T01:10:21;10.27;;;8.17;;
48205;SDS011;33995;48.202;16.260;2023-10-13T01:12:52;11.30;;;8.00;;
48205;SDS011;33995;48.202;16.260;2023-10-13T01:15:20;10.87;;;7.80;;
48205;SDS011;33995;48.202;16.260;2023-10-13T01:17:48;8.83;;;7.93;;
48205;SDS011;33995;48.202;16.260;2023-10-13T01:20:15;10.47;;;8.40;;
48205;SDS011;33995;48.202;16.260;2023-10-13T01:22:52;10.73;;;7.60;;
48205;SDS011;33995;48.202;16.260;2023-10-13T01:25:23;9.53;;;7.50;;
48205;SDS011;33995;48.202;16.260;2023-10-13T01:27:57;8.40;;;7.50;;
48205;SDS011;33995;48.202;16.260;2023-10-13T01:30:24;10.57;;;7.97;;
48205;SDS011;33995;48.202;16.260;2023-10-13T01:32:53;10.53;;;7.53;;
48205;SDS011;33995;48.202;16.260;2023-10-13T01:35:21;8.60;;;7.67;;
48205;SDS011;33995;48.202;16.260;2023-10-13T01:38:04;9.67;;;7.33;;
48205;SDS011;33995;48.202;16.260;2023-10-13T01:40:31;9.00;;;7.77;;
48205;SDS011;33995;48.202;16.260;2023-10-13T01:43:01;10.20;;;7.80;;
48205;SDS011;33995;48.202;16.260;2023-10-13T01:45:31;9.53;;;7.43;;
48205;SDS011;33995;48.202;16.260;2023-10-13T01:47:58;9.07;;;7.57;;
48205;SDS011;33995;48.202;16.260;2023-10-13T01:50:25;9.80;;;7.57;;
48205;SDS011;33995;48.202;16.260;2023-10-13T01:52:57;9.30;;;7.40;;
48205;SDS011;33995;48.202;16.260;2023-10-13T01:55:41;9.73;;;7.43;;
48205;SDS011;33995;48.202;16.260;2023-10-13T01:58:14;7.93;;;7.13;;
48205;SDS011;33995;48.202;16.260;2023-10-13T02:05:14;9.27;;;7.53;;
48205;SDS011;33995;48.202;16.260;2023-10-13T02:07:44;8.53;;;7.23;;
48205;SDS011;33995;48.202;16.260;2023-10-13T02:10:13;10.93;;;8.13;;
48205;SDS011;33995;48.202;16.260;2023-10-13T02:12:41;8.80;;;7.63;;
48205;SDS011;33995;48.202;16.260;2023-10-13T02:15:13;8.67;;;7.80;;
48205;SDS011;33995;48.202;16.260;2023-10-13T02:17:48;10.07;;;8.13;;
48205;SDS011;33995;48.202;16.260;2023-10-13T02:20:18;10.37;;;8.23;;
48205;SDS011;33995;48.202;16.260;2023-10-13T02:22:49;11.20;;;8.67;;
48205;SDS011;33995;48.202;16.260;2023-10-13T02:25:17;9.43;;;8.07;;
48205;SDS011;33995;48.202;16.260;2023-10-13T02:28:04;11.13;;;7.80;;
48205;SDS011;33995;48.202;16.260;2023-10-13T02:30:43;9.03;;;8.00;;
48205;SDS011;33995;48.202;16.260;2023-10-13T02:33:17;9.77;;;7.67;;
48205;SDS011;33995;48.202;16.260;2023-10-13T02:35:48;11.47;;;8.17;;
48205;SDS011;33995;48.202;16.260;2023-10-13T02:38:22;9.77;;;8.20;;
48205;SDS011;33995;48.202;16.260;2023-10-13T02:41:15;10.87;;;7.70;;
48205;SDS011;33995;48.202;16.260;2023-10-13T02:43:55;8.40;;;7.47;;
48205;SDS011;33995;48.202;16.260;2023-10-13T02:46:22;11.93;;;7.87;;
48205;SDS011;33995;48.202;16.260;2023-10-13T02:48:56;10.10;;;8.07;;
48205;SDS011;33995;48.202;16.260;2023-10-13T02:51:28;9.70;;;7.80;;
48205;SDS011;33995;48.202;16.260;2023-10-13T02:54:04;10.33;;;8.00;;
48205;SDS011;33995;48.202;16.260;2023-10-13T02:56:39;9.03;;;8.07;;
48205;SDS011;33995;48.202;16.260;2023-10-13T02:59:23;9.27;;;7.47;;
48205;SDS011;33995;48.202;16.260;2023-10-13T03:02:12;11.93;;;8.20;;
48205;SDS011;33995;48.202;16.260;2023-10-13T03:04:56;9.03;;;7.73;;
48205;SDS011;33995;48.202;16.260;2023-10-13T03:07:27;10.50;;;8.57;;
48205;SDS011;33995;48.202;16.260;2023-10-13T03:09:57;9.57;;;8.20;;
48205;SDS011;33995;48.202;16.260;2023-10-13T03:12:27;9.70;;;7.70;;
48205;SDS011;33995;48.202;16.260;2023-10-13T03:15:00;10.13;;;8.07;;
48205;SDS011;33995;48.202;16.260;2023-10-13T03:17:40;9.40;;;7.67;;
48205;SDS011;33995;48.202;16.260;2023-10-13T03:20:17;9.83;;;8.03;;
48205;SDS011;33995;48.202;16.260;2023-10-13T03:23:00;8.93;;;7.73;;
48205;SDS011;33995;48.202;16.260;2023-10-13T03:25:26;9.63;;;8.27;;
48205;SDS011;33995;48.202;16.260;2023-10-13T03:28:04;9.93;;;8.00;;
48205;SDS011;33995;48.202;16.260;2023-10-13T03:30:31;10.80;;;8.27;;
48205;SDS011;33995;48.202;16.260;2023-10-13T03:33:19;11.33;;;7.97;;
48205;SDS011;33995;48.202;16.260;2023-10-13T03:35:54;11.23;;;7.97;;
48205;SDS011;33995;48.202;16.260;2023-10-13T03:38:28;9.00;;;8.00;;
48205;SDS011;33995;48.202;16.260;2023-10-13T03:40:55;9.70;;;8.47;;
48205;SDS011;33995;48.202;16.260;2023-10-13T03:43:25;10.70;;;8.00;;
48205;SDS011;33995;48.202;16.260;2023-10-13T03:45:56;10.43;;;8.37;;
48205;SDS011;33995;48.202;16.260;2023-10-13T03:48:34;12.00;;;8.20;;
48205;SDS011;33995;48.202;16.260;2023-10-13T03:51:07;8.47;;;7.67;;
48205;SDS011;33995;48.202;16.260;2023-10-13T03:53:37;9.40;;;8.00;;
48205;SDS011;33995;48.202;16.260;2023-10-13T03:56:21;10.40;;;7.80;;
48205;SDS011;33995;48.202;16.260;2023-10-13T03:58:58;9.67;;;8.20;;
48205;SDS011;33995;48.202;16.260;2023-10-13T04:01:33;9.63;;;7.70;;
48205;SDS011;33995;48.202;16.260;2023-10-13T04:04:10;10.07;;;7.80;;
48205;SDS011;33995;48.202;16.260;2023-10-13T04:06:38;10.17;;;8.00;;
48205;SDS011;33995;48.202;16.260;2023-10-13T04:09:18;12.47;;;8.43;;
48205;SDS011;33995;48.202;16.260;2023-10-13T04:11:56;8.47;;;7.53;;
48205;SDS011;33995;48.202;16.260;2023-10-13T04:14:35;10.70;;;7.93;;
48205;SDS011;33995;48.202;16.260;2023-10-13T04:17:23;9.73;;;8.00;;
48205;SDS011;33995;48.202;16.260;2023-10-13T04:19:54;9.27;;;7.80;;
48205;SDS011;33995;48.202;16.260;2023-10-13T04:22:50;11.80;;;8.30;;
48205;SDS011;33995;48.202;16.260;2023-10-13T04:28:13;10.13;;;7.80;;
48205;SDS011;33995;48.202;16.260;2023-10-13T04:30:45;12.00;;;8.23;;
48205;SDS011;33995;48.202;16.260;2023-10-13T04:33:27;11.67;;;8.23;;
48205;SDS011;33995;48.202;16.260;2023-10-13T04:36:03;10.73;;;8.40;;
48205;SDS011;33995;48.202;16.260;2023-10-13T04:38:43;9.37;;;8.10;;
48205;SDS011;33995;48.202;16.260;2023-10-13T04:41:24;9.40;;;7.63;;
48205;SDS011;33995;48.202;16.260;2023-10-13T04:44:15;9.57;;;7.83;;
48205;SDS011;33995;48.202;16.260;2023-10-13T04:47:02;10.93;;;7.80;;
48205;SDS011;33995;48.202;16.260;2023-10-13T04:49:30;13.83;;;9.40;;
48205;SDS011;33995;48.202;16.260;2023-10-13T04:52:01;9.23;;;8.33;;
48205;SDS011;33995;48.202;16.260;2023-10-13T04:54:36;10.37;;;8.37;;
48205;SDS011;33995;48.202;16.260;2023-10-13T04:57:18;10.37;;;9.27;;
48205;SDS011;33995;48.202;16.260;2023-10-13T05:00:21;9.43;;;8.43;;
48205;SDS011;33995;48.202;16.260;2023-10-13T05:02:48;9.33;;;8.10;;
48205;SDS011;33995;48.202;16.260;2023-10-13T05:05:27;11.63;;;8.17;;
48205;SDS011;33995;48.202;16.260;2023-10-13T05:08:33;8.60;;;7.70;;
48205;SDS011;33995;48.202;16.260;2023-10-13T05:11:18;11.23;;;7.90;;
48205;SDS011;33995;48.202;16.260;2023-10-13T05:14:03;10.27;;;8.00;;
48205;SDS011;33995;48.202;16.260;2023-10-13T05:16:49;8.70;;;7.80;;
48205;SDS011;33995;48.202;16.260;2023-10-13T05:19:36;10.40;;;7.93;;
48205;SDS011;33995;48.202;16.260;2023-10-13T05:22:38;11.40;;;8.03;;
48205;SDS011;33995;48.202;16.260;2023-10-13T05:25:24;9.87;;;8.20;;
48205;SDS011;33995;48.202;16.260;2023-10-13T05:28:09;10.27;;;9.10;;
48205;SDS011;33995;48.202;16.260;2023-10-13T05:31:02;9.87;;;8.40;;
48205;SDS011;33995;48.202;16.260;2023-10-13T05:33:48;10.90;;;8.33;;
48205;SDS011;33995;48.202;16.260;2023-10-13T05:36:33;11.50;;;9.23;;
48205;SDS011;33995;48.202;16.260;2023-10-13T05:39:19;10.57;;;8.97;;
48205;SDS011;33995;48.202;16.260;2023-10-13T05:42:06;11.23;;;9.03;;
48205;SDS011;33995;48.202;16.260;2023-10-13T05:44:52;11.13;;;8.83;;
48205;SDS011;33995;48.202;16.260;2023-10-13T05:47:37;10.90;;;8.90;;
48205;SDS011;33995;48.202;16.260;2023-10-13T05:50:05;9.53;;;8.27;;
48205;SDS011;33995;48.202;16.260;2023-10-13T05:52:48;10.40;;;8.70;;
48205;SDS011;33995;48.202;16.260;2023-10-13T05:55:30;11.13;;;8.27;;
48205;SDS011;33995;48.202;16.260;2023-10-13T05:58:17;9.67;;;8.67;;
48205;SDS011;33995;48.202;16.260;2023-10-13T06:01:03;9.90;;;8.10;;
48205;SDS011;33995;48.202;16.260;2023-10-13T06:03:49;9.63;;;8.03;;
48205;SDS011;33995;48.202;16.260;2023-10-13T06:06:34;9.30;;;8.30;;
48205;SDS011;33995;48.202;16.260;2023-10-13T06:09:20;10.03;;;8.03;;
48205;SDS011;33995;48.202;16.260;2023-10-13T06:12:07;11.47;;;8.50;;
48205;SDS011;33995;48.202;16.260;2023-10-13T06:14:53;14.00;;;8.73;;
48205;SDS011;33995;48.202;16.260;2023-10-13T06:17:38;10.53;;;8.30;;
48205;SDS011;33995;48.202;16.260;2023-10-13T06:20:26;11.47;;;8.73;;
48205;SDS011;33995;48.202;16.260;2023-10-13T06:23:12;13.60;;;8.83;;
48205;SDS011;33995;48.202;16.260;2023-10-13T06:25:57;12.07;;;8.83;;
48205;SDS011;33995;48.202;16.260;2023-10-13T06:28:42;10.10;;;8.53;;
48205;SDS011;33995;48.202;16.260;2023-10-13T06:31:12;12.07;;;9.23;;
48205;SDS011;33995;48.202;16.260;2023-10-13T06:33:49;10.93;;;8.73;;
48205;SDS011;33995;48.202;16.260;2023-10-13T06:36:16;12.63;;;9.03;;
48205;SDS011;33995;48.202;16.260;2023-10-13T06:38:44;10.80;;;8.63;;
48205;SDS011;33995;48.202;16.260;2023-10-13T06:41:19;12.53;;;9.30;;
48205;SDS011;33995;48.202;16.260;2023-10-13T06:44:00;12.00;;;9.20;;
48205;SDS011;33995;48.202;16.260;2023-10-13T06:46:28;10.80;;;8.33;;
48205;SDS011;33995;48.202;16.260;2023-10-13T06:49:00;11.80;;;8.53;;
48205;SDS011;33995;48.202;16.260;2023-10-13T06:51:29;12.00;;;9.00;;
48205;SDS011;33995;48.202;16.260;2023-10-13T06:54:05;11.40;;;8.30;;
48205;SDS011;33995;48.202;16.260;2023-10-13T06:56:38;8.20;;;7.00;;
48205;SDS011;33995;48.202;16.260;2023-10-13T06:59:07;8.37;;;7.30;;
48205;SDS011;33995;48.202;16.260;2023-10-13T07:01:37;10.90;;;8.10;;
48205;SDS011;33995;48.202;16.260;2023-10-13T07:04:08;10.13;;;8.23;;
48205;SDS011;33995;48.202;16.260;2023-10-13T07:06:43;10.57;;;7.70;;
48205;SDS011;33995;48.202;16.260;2023-10-13T07:09:20;9.47;;;7.77;;
48205;SDS011;33995;48.202;16.260;2023-10-13T07:12:03;9.93;;;7.50;;
48205;SDS011;33995;48.202;16.260;2023-10-13T07:14:35;9.57;;;7.20;;
48205;SDS011;33995;48.202;16.260;2023-10-13T07:17:05;8.70;;;7.03;;
48205;SDS011;33995;48.202;16.260;2023-10-13T07:19:34;10.63;;;7.70;;
48205;SDS011;33995;48.202;16.260;2023-10-13T07:22:04;9.73;;;7.40;;
48205;SDS011;33995;48.202;16.260;2023-10-13T07:24:49;8.43;;;7.33;;
48205;SDS011;33995;48.202;16.260;2023-10-13T07:27:17;11.60;;;7.13;;
48205;SDS011;33995;48.202;16.260;2023-10-13T07:29:55;9.03;;;7.33;;
48205;SDS011;33995;48.202;16.260;2023-10-13T07:32:24;8.77;;;7.23;;
48205;SDS011;33995;48.202;16.260;2023-10-13T07:34:53;10.97;;;6.97;;
48205;SDS011;33995;48.202;16.260;2023-10-13T07:37:24;9.67;;;6.80;;
48205;SDS011;33995;48.202;16.260;2023-10-13T07:39:55;7.00;;;6.17;;
48205;SDS011;33995;48.202;16.260;2023-10-13T07:42:25;8.97;;;6.60;;
48205;SDS011;33995;48.202;16.260;2023-10-13T07:44:58;7.33;;;6.23;;
48205;SDS011;33995;48.202;16.260;2023-10-13T07:47:25;7.67;;;6.07;;
48205;SDS011;33995;48.202;16.260;2023-10-13T07:49:54;8.47;;;6.53;;
48205;SDS011;33995;48.202;16.260;2023-10-13T07:52:23;10.40;;;6.63;;
48205;SDS011;33995;48.202;16.260;2023-10-13T07:54:56;10.70;;;7.03;;
48205;SDS011;33995;48.202;16.260;2023-10-13T07:57:30;10.83;;;6.80;;
48205;SDS011;33995;48.202;16.260;2023-10-13T07:59:57;9.70;;;6.27;;
48205;SDS011;33995;48.202;16.260;2023-10-13T08:02:59;9.57;;;6.40;;
48205;SDS011;33995;48.202;16.260;2023-10-13T08:05:45;7.67;;;5.77;;
48205;SDS011;33995;48.202;16.260;2023-10-13T08:08:47;8.40;;;6.37;;
48205;SDS011;33995;48.202;16.260;2023-10-13T08:11:20;7.63;;;5.77;;
48205;SDS011;33995;48.202;16.260;2023-10-13T08:13:58;10.23;;;6.50;;
48205;SDS011;33995;48.202;16.260;2023-10-13T08:16:43;7.03;;;6.33;;
48205;SDS011;33995;48.202;16.260;2023-10-13T08:19:24;9.77;;;6.17;;
48205;SDS011;33995;48.202;16.260;2023-10-13T08:22:08;8.00;;;5.97;;
48205;SDS011;33995;48.202;16.260;2023-10-13T08:24:45;7.63;;;6.43;;
48205;SDS011;33995;48.202;16.260;2023-10-13T08:27:13;8.70;;;5.73;;
48205;SDS011;33995;48.202;16.260;2023-10-13T08:29:46;7.27;;;5.93;;
48205;SDS011;33995;48.202;16.260;2023-10-13T08:32:23;7.63;;;5.93;;
48205;SDS011;33995;48.202;16.260;2023-10-13T08:34:57;8.63;;;5.90;;
48205;SDS011;33995;48.202;16.260;2023-10-13T08:37:26;8.20;;;6.13;;
48205;SDS011;33995;48.202;16.260;2023-10-13T08:39:54;8.50;;;5.70;;
48205;SDS011;33995;48.202;16.260;2023-10-13T08:42:52;7.57;;;5.37;;
48205;SDS011;33995;48.202;16.260;2023-10-13T08:45:31;6.90;;;5.10;;
48205;SDS011;33995;48.202;16.260;2023-10-13T08:48:03;8.57;;;5.37;;
48205;SDS011;33995;48.202;16.260;2023-10-13T08:53:23;6.93;;;4.97;;
48205;SDS011;33995;48.202;16.260;2023-10-13T08:59:05;5.70;;;5.00;;
48205;SDS011;33995;48.202;16.260;2023-10-13T09:01:35;6.10;;;4.80;;
48205;SDS011;33995;48.202;16.260;2023-10-13T09:04:16;7.60;;;4.43;;
48205;SDS011;33995;48.202;16.260;2023-10-13T09:06:46;8.00;;;5.13;;
48205;SDS011;33995;48.202;16.260;2023-10-13T09:12:13;8.03;;;5.27;;
48205;SDS011;33995;48.202;16.260;2023-10-13T09:15:03;7.73;;;5.83;;
48205;SDS011;33995;48.202;16.260;2023-10-13T09:17:41;10.23;;;6.40;;
48205;SDS011;33995;48.202;16.260;2023-10-13T09:20:30;9.23;;;6.17;;
48205;SDS011;33995;48.202;16.260;2023-10-13T09:23:10;11.43;;;5.90;;
48205;SDS011;33995;48.202;16.260;2023-10-13T09:25:51;9.40;;;5.80;;
48205;SDS011;33995;48.202;16.260;2023-10-13T09:28:28;7.50;;;5.33;;
48205;SDS011;33995;48.202;16.260;2023-10-13T09:30:55;6.90;;;5.43;;
48205;SDS011;33995;48.202;16.260;2023-10-13T09:33:25;7.00;;;5.00;;
48205;SDS011;33995;48.202;16.260;2023-10-13T09:36:02;7.60;;;5.43;;
48205;SDS011;33995;48.202;16.260;2023-10-13T09:38:36;6.80;;;4.83;;
48205;SDS011;33995;48.202;16.260;2023-10-13T09:41:07;7.90;;;5.27;;
48205;SDS011;33995;48.202;16.260;2023-10-13T09:43:53;8.10;;;5.00;;
48205;SDS011;33995;48.202;16.260;2023-10-13T09:46:26;8.60;;;4.93;;
48205;SDS011;33995;48.202;16.260;2023-10-13T09:48:57;8.47;;;4.80;;
48205;SDS011;33995;48.202;16.260;2023-10-13T09:51:31;7.67;;;4.77;;
48205;SDS011;33995;48.202;16.260;2023-10-13T09:54:03;7.00;;;4.60;;
48205;SDS011;33995;48.202;16.260;2023-10-13T09:56:37;6.70;;;4.67;;
48205;SDS011;33995;48.202;16.260;2023-10-13T09:59:31;6.33;;;4.80;;
48205;SDS011;33995;48.202;16.260;2023-10-13T10:02:03;5.93;;;4.70;;
48205;SDS011;33995;48.202;16.260;2023-10-13T10:04:36;9.40;;;5.07;;
48205;SDS011;33995;48.202;16.260;2023-10-13T10:07:24;6.43;;;4.60;;
48205;SDS011;33995;48.202;16.260;2023-10-13T10:09:59;8.17;;;4.57;;
48205;SDS011;33995;48.202;16.260;2023-10-13T10:12:37;7.27;;;4.60;;
48205;SDS011;33995;48.202;16.260;2023-10-13T10:18:17;8.57;;;4.50;;
48205;SDS011;33995;48.202;16.260;2023-10-13T10:20:49;6.43;;;4.07;;
48205;SDS011;33995;48.202;16.260;2023-10-13T10:23:30;5.87;;;4.40;;
48205;SDS011;33995;48.202;16.260;2023-10-13T10:26:09;5.73;;;4.23;;
48205;SDS011;33995;48.202;16.260;2023-10-13T10:28:42;6.57;;;4.50;;
48205;SDS011;33995;48.202;16.260;2023-10-13T10:31:10;7.33;;;4.30;;
48205;SDS011;33995;48.202;16.260;2023-10-13T10:33:46;8.07;;;4.40;;
48205;SDS011;33995;48.202;16.260;2023-10-13T10:36:17;6.97;;;4.17;;
48205;SDS011;33995;48.202;16.260;2023-10-13T10:38:56;5.73;;;4.10;;
48205;SDS011;33995;48.202;16.260;2023-10-13T10:41:28;6.33;;;4.30;;
48205;SDS011;33995;48.202;16.260;2023-10-13T10:44:16;7.50;;;4.20;;
48205;SDS011;33995;48.202;16.260;2023-10-13T10:46:43;9.73;;;4.60;;
48205;SDS011;33995;48.202;16.260;2023-10-13T10:49:26;8.50;;;4.57;;
48205;SDS011;33995;48.202;16.260;2023-10-13T10:51:57;6.03;;;4.20;;
48205;SDS011;33995;48.202;16.260;2023-10-13T10:54:30;6.43;;;4.07;;
48205;SDS011;33995;48.202;16.260;2023-10-13T10:57:00;8.70;;;4.53;;
48205;SDS011;33995;48.202;16.260;2023-10-13T10:59:57;6.20;;;4.10;;
48205;SDS011;33995;48.202;16.260;2023-10-13T11:02:38;8.87;;;4.23;;
48205;SDS011;33995;48.202;16.260;2023-10-13T11:05:08;10.50;;;3.90;;
48205;SDS011;33995;48.202;16.260;2023-10-13T11:07:46;7.37;;;4.67;;
48205;SDS011;33995;48.202;16.260;2023-10-13T11:10:18;7.20;;;4.27;;
48205;SDS011;33995;48.202;16.260;2023-10-13T11:12:58;8.33;;;4.50;;
48205;SDS011;33995;48.202;16.260;2023-10-13T11:15:41;7.27;;;4.50;;
48205;SDS011;33995;48.202;16.260;2023-10-13T11:18:11;5.87;;;4.10;;
48205;SDS011;33995;48.202;16.260;2023-10-13T11:20:48;6.90;;;4.23;;
48205;SDS011;33995;48.202;16.260;2023-10-13T11:23:21;8.77;;;4.10;;
48205;SDS011;33995;48.202;16.260;2023-10-13T11:25:58;6.17;;;4.03;;
48205;SDS011;33995;48.202;16.260;2023-10-13T11:28:28;7.23;;;3.93;;
48205;SDS011;33995;48.202;16.260;2023-10-13T11:30:55;9.17;;;3.97;;
48205;SDS011;33995;48.202;16.260;2023-10-13T11:33:26;6.80;;;4.00;;
48205;SDS011;33995;48.202;16.260;2023-10-13T11:35:55;6.23;;;4.27;;
48205;SDS011;33995;48.202;16.260;2023-10-13T11:38:30;7.03;;;4.30;;
48205;SDS011;33995;48.202;16.260;2023-10-13T11:41:14;7.70;;;4.43;;
48205;SDS011;33995;48.202;16.260;2023-10-13T11:43:46;6.33;;;4.20;;
48205;SDS011;33995;48.202;16.260;2023-10-13T11:46:22;6.77;;;3.90;;
48205;SDS011;33995;48.202;16.260;2023-10-13T11:49:11;6.70;;;4.03;;
48205;SDS011;33995;48.202;16.260;2023-10-13T11:51:41;5.17;;;4.20;;
48205;SDS011;33995;48.202;16.260;2023-10-13T11:54:22;5.57;;;4.13;;
48205;SDS011;33995;48.202;16.260;2023-10-13T11:56:50;7.23;;;4.37;;
48205;SDS011;33995;48.202;16.260;2023-10-13T11:59:17;7.50;;;4.20;;
48205;SDS011;33995;48.202;16.260;2023-10-13T12:01:48;6.10;;;4.07;;
48205;SDS011;33995;48.202;16.260;2023-10-13T12:04:35;7.17;;;4.00;;
48205;SDS011;33995;48.202;16.260;2023-10-13T12:07:18;5.97;;;4.10;;
48205;SDS011;33995;48.202;16.260;2023-10-13T12:09:50;7.93;;;4.13;;
48205;SDS011;33995;48.202;16.260;2023-10-13T12:12:27;6.37;;;4.07;;
48205;SDS011;33995;48.202;16.260;2023-10-13T12:14:55;6.63;;;4.10;;
48205;SDS011;33995;48.202;16.260;2023-10-13T12:17:26;6.40;;;4.37;;
48205;SDS011;33995;48.202;16.260;2023-10-13T12:20:06;8.07;;;3.87;;
48205;SDS011;33995;48.202;16.260;2023-10-13T12:22:38;7.57;;;4.23;;
48205;SDS011;33995;48.202;16.260;2023-10-13T12:25:09;7.70;;;4.03;;
48205;SDS011;33995;48.202;16.260;2023-10-13T12:27:55;9.60;;;4.70;;
48205;SDS011;33995;48.202;16.260;2023-10-13T12:30:44;8.53;;;4.43;;
48205;SDS011;33995;48.202;16.260;2023-10-13T12:33:16;7.00;;;4.07;;
48205;SDS011;33995;48.202;16.260;2023-10-13T12:36:00;9.23;;;5.60;;
48205;SDS011;33995;48.202;16.260;2023-10-13T12:38:40;6.40;;;3.80;;
48205;SDS011;33995;48.202;16.260;2023-10-13T12:41:17;7.97;;;4.07;;
48205;SDS011;33995;48.202;16.260;2023-10-13T12:44:05;9.07;;;4.10;;
48205;SDS011;33995;48.202;16.260;2023-10-13T12:46:53;6.27;;;4.00;;
48205;SDS011;33995;48.202;16.260;2023-10-13T12:49:55;9.27;;;4.27;;
48205;SDS011;33995;48.202;16.260;2023-10-13T12:52:31;5.77;;;4.10;;
48205;SDS011;33995;48.202;16.260;2023-10-13T12:54:58;7.27;;;4.07;;
48205;SDS011;33995;48.202;16.260;2023-10-13T12:57:33;7.77;;;4.03;;
48205;SDS011;33995;48.202;16.260;2023-10-13T13:00:01;5.83;;;4.27;;
48205;SDS011;33995;48.202;16.260;2023-10-13T13:02:43;7.97;;;4.33;;
48205;SDS011;33995;48.202;16.260;2023-10-13T13:05:10;5.67;;;3.93;;
48205;SDS011;33995;48.202;16.260;2023-10-13T13:07:43;8.13;;;4.40;;
48205;SDS011;33995;48.202;16.260;2023-10-13T13:10:16;6.10;;;3.83;;
48205;SDS011;33995;48.202;16.260;2023-10-13T13:12:44;9.13;;;4.77;;
48205;SDS011;33995;48.202;16.260;2023-10-13T13:15:11;7.77;;;4.40;;
48205;SDS011;33995;48.202;16.260;2023-10-13T13:17:41;6.43;;;4.37;;
48205;SDS011;33995;48.202;16.260;2023-10-13T13:20:08;6.07;;;4.03;;
48205;SDS011;33995;48.202;16.260;2023-10-13T13:22:52;6.73;;;4.27;;
48205;SDS011;33995;48.202;16.260;2023-10-13T13:25:21;7.43;;;4.40;;
48205;SDS011;33995;48.202;16.260;2023-10-13T13:27:57;6.43;;;4.20;;
48205;SDS011;33995;48.202;16.260;2023-10-13T13:30:31;6.90;;;4.20;;
48205;SDS011;33995;48.202;16.260;2023-10-13T13:33:01;8.97;;;4.60;;
48205;SDS011;33995;48.202;16.260;2023-10-13T13:35:37;8.07;;;4.53;;
48205;SDS011;33995;48.202;16.260;2023-10-13T13:38:05;6.93;;;4.47;;
48205;SDS011;33995;48.202;16.260;2023-10-13T13:40:48;8.10;;;4.50;;
48205;SDS011;33995;48.202;16.260;2023-10-13T13:43:16;8.50;;;4.67;;
48205;SDS011;33995;48.202;16.260;2023-10-13T13:45:59;7.33;;;4.30;;
48205;SDS011;33995;48.202;16.260;2023-10-13T13:48:30;7.60;;;4.17;;
48205;SDS011;33995;48.202;16.260;2023-10-13T13:51:02;7.07;;;4.23;;
48205;SDS011;33995;48.202;16.260;2023-10-13T13:53:45;11.70;;;4.47;;
48205;SDS011;33995;48.202;16.260;2023-10-13T13:56:14;5.40;;;3.80;;
48205;SDS011;33995;48.202;16.260;2023-10-13T13:58:45;6.23;;;4.40;;
48205;SDS011;33995;48.202;16.260;2023-10-13T14:01:14;6.40;;;3.93;;
48205;SDS011;33995;48.202;16.260;2023-10-13T14:03:42;5.93;;;4.20;;
48205;SDS011;33995;48.202;16.260;2023-10-13T14:06:13;8.33;;;4.87;;
48205;SDS011;33995;48.202;16.260;2023-10-13T14:08:50;11.77;;;4.87;;
48205;SDS011;33995;48.202;16.260;2023-10-13T14:11:22;8.47;;;4.70;;
48205;SDS011;33995;48.202;16.260;2023-10-13T14:14:15;7.63;;;4.30;;
48205;SDS011;33995;48.202;16.260;2023-10-13T14:17:00;7.93;;;4.50;;
48205;SDS011;33995;48.202;16.260;2023-10-13T14:19:34;7.80;;;4.30;;
48205;SDS011;33995;48.202;16.260;2023-10-13T14:22:08;12.70;;;4.57;;
48205;SDS011;33995;48.202;16.260;2023-10-13T14:24:39;5.53;;;4.23;;
48205;SDS011;33995;48.202;16.260;2023-10-13T14:27:18;7.00;;;4.30;;
48205;SDS011;33995;48.202;16.260;2023-10-13T14:29:47;8.00;;;4.13;;
48205;SDS011;33995;48.202;16.260;2023-10-13T14:32:14;6.43;;;4.03;;
48205;SDS011;33995;48.202;16.260;2023-10-13T14:34:43;8.63;;;4.33;;
48205;SDS011;33995;48.202;16.260;2023-10-13T14:37:12;7.93;;;4.27;;
48205;SDS011;33995;48.202;16.260;2023-10-13T14:39:48;7.03;;;3.90;;
48205;SDS011;33995;48.202;16.260;2023-10-13T14:42:15;6.47;;;4.33;;
48205;SDS011;33995;48.202;16.260;2023-10-13T14:44:46;8.93;;;4.27;;
48205;SDS011;33995;48.202;16.260;2023-10-13T14:47:22;6.63;;;4.33;;
48205;SDS011;33995;48.202;16.260;2023-10-13T14:49:56;8.37;;;4.10;;
48205;SDS011;33995;48.202;16.260;2023-10-13T14:52:30;6.53;;;4.23;;
48205;SDS011;33995;48.202;16.260;2023-10-13T14:55:00;6.00;;;3.90;;
48205;SDS011;33995;48.202;16.260;2023-10-13T14:57:27;6.63;;;4.10;;
48205;SDS011;33995;48.202;16.260;2023-10-13T14:59:54;7.20;;;4.33;;
48205;SDS011;33995;48.202;16.260;2023-10-13T15:02:22;7.80;;;4.37;;
48205;SDS011;33995;48.202;16.260;2023-10-13T15:04:49;6.43;;;4.43;;
48205;SDS011;33995;48.202;16.260;2023-10-13T15:07:17;8.67;;;4.40;;
48205;SDS011;33995;48.202;16.260;2023-10-13T15:09:46;6.30;;;4.30;;
48205;SDS011;33995;48.202;16.260;2023-10-13T15:12:14;6.87;;;4.37;;
48205;SDS011;33995;48.202;16.260;2023-10-13T15:14:47;7.77;;;4.77;;
48205;SDS011;33995;48.202;16.260;2023-10-13T15:17:14;7.23;;;4.43;;
48205;SDS011;33995;48.202;16.260;2023-10-13T15:19:43;8.00;;;4.30;;
48205;SDS011;33995;48.202;16.260;2023-10-13T15:22:13;7.07;;;4.50;;
48205;SDS011;33995;48.202;16.260;2023-10-13T15:24:48;10.03;;;4.70;;
48205;SDS011;33995;48.202;16.260;2023-10-13T15:27:36;7.87;;;4.50;;
48205;SDS011;33995;48.202;16.260;2023-10-13T15:30:11;5.57;;;4.43;;
48205;SDS011;33995;48.202;16.260;2023-10-13T15:32:53;7.47;;;4.47;;
48205;SDS011;33995;48.202;16.260;2023-10-13T15:35:24;7.27;;;4.60;;
48205;SDS011;33995;48.202;16.260;2023-10-13T15:37:55;10.60;;;4.50;;
48205;SDS011;33995;48.202;16.260;2023-10-13T15:40:22;8.63;;;4.93;;